sensor_id;sensor_type;location;lat;lon;timestamp;P1;durP1;ratioP1;P2;durP2;ratioP2
41141;SDS011;63666;52.284;20.890;2022-10-26T00:01:21;6.60;;;4.80;;
41141;SDS011;63666;52.284;20.890;2022-10-26T00:03:55;6.80;;;5.00;;
41141;SDS011;63666;52.284;20.890;2022-10-26T00:06:27;7.00;;;5.10;;
41141;SDS011;63666;52.284;20.890;2022-10-26T00:08:59;5.80;;;4.50;;
41141;SDS011;63666;52.284;20.890;2022-10-26T00:11:31;6.20;;;4.70;;
41141;SDS011;63666;52.284;20.890;2022-10-26T00:14:04;6.40;;;4.90;;
41141;SDS011;63666;52.284;20.890;2022-10-26T00:16:36;6.20;;;4.30;;
41141;SDS011;63666;52.284;20.890;2022-10-26T00:19:08;5.70;;;4.30;;
41141;SDS011;63666;52.284;20.890;2022-10-26T00:21:40;6.70;;;4.80;;
41141;SDS011;63666;52.284;20.890;2022-10-26T00:24:13;6.50;;;4.70;;
41141;SDS011;63666;52.284;20.890;2022-10-26T00:26:45;6.70;;;4.60;;
41141;SDS011;63666;52.284;20.890;2022-10-26T00:29:18;6.00;;;5.10;;
41141;SDS011;63666;52.284;20.890;2022-10-26T00:31:50;6.10;;;4.70;;
41141;SDS011;63666;52.284;20.890;2022-10-26T00:34:22;7.20;;;5.20;;
41141;SDS011;63666;52.284;20.890;2022-10-26T00:36:54;5.70;;;4.30;;
41141;SDS011;63666;52.284;20.890;2022-10-26T00:39:26;6.40;;;4.90;;
41141;SDS011;63666;52.284;20.890;2022-10-26T00:41:58;6.40;;;4.50;;
41141;SDS011;63666;52.284;20.890;2022-10-26T00:45:01;6.50;;;4.80;;
41141;SDS011;63666;52.284;20.890;2022-10-26T00:47:39;6.20;;;4.80;;
41141;SDS011;63666;52.284;20.890;2022-10-26T00:50:15;6.30;;;4.60;;
41141;SDS011;63666;52.284;20.890;2022-10-26T00:52:49;6.30;;;4.60;;
41141;SDS011;63666;52.284;20.890;2022-10-26T00:55:26;6.30;;;4.70;;
41141;SDS011;63666;52.284;20.890;2022-10-26T00:58:01;6.10;;;4.60;;
41141;SDS011;63666;52.284;20.890;2022-10-26T01:00:35;6.30;;;4.60;;
41141;SDS011;63666;52.284;20.890;2022-10-26T01:03:08;6.60;;;4.60;;
41141;SDS011;63666;52.284;20.890;2022-10-26T01:05:42;6.40;;;4.40;;
41141;SDS011;63666;52.284;20.890;2022-10-26T01:08:16;6.80;;;4.70;;
41141;SDS011;63666;52.284;20.890;2022-10-26T01:10:49;5.70;;;4.50;;
41141;SDS011;63666;52.284;20.890;2022-10-26T01:13:21;6.20;;;4.80;;
41141;SDS011;63666;52.284;20.890;2022-10-26T01:15:59;6.80;;;4.90;;
41141;SDS011;63666;52.284;20.890;2022-10-26T01:18:49;6.20;;;4.60;;
41141;SDS011;63666;52.284;20.890;2022-10-26T01:21:48;6.40;;;4.50;;
41141;SDS011;63666;52.284;20.890;2022-10-26T01:24:37;6.60;;;4.90;;
41141;SDS011;63666;52.284;20.890;2022-10-26T01:27:24;6.30;;;4.60;;
41141;SDS011;63666;52.284;20.890;2022-10-26T01:30:25;6.90;;;4.80;;
41141;SDS011;63666;52.284;20.890;2022-10-26T01:33:19;5.80;;;4.60;;
41141;SDS011;63666;52.284;20.890;2022-10-26T01:36:03;5.80;;;4.50;;
41141;SDS011;63666;52.284;20.890;2022-10-26T01:38:45;5.80;;;4.50;;
41141;SDS011;63666;52.284;20.890;2022-10-26T01:41:24;6.30;;;5.00;;
41141;SDS011;63666;52.284;20.890;2022-10-26T01:44:02;6.60;;;4.60;;
41141;SDS011;63666;52.284;20.890;2022-10-26T01:46:38;6.70;;;4.90;;
41141;SDS011;63666;52.284;20.890;2022-10-26T01:49:14;6.30;;;4.60;;
41141;SDS011;63666;52.284;20.890;2022-10-26T01:51:49;6.30;;;4.90;;
41141;SDS011;63666;52.284;20.890;2022-10-26T01:56:54;7.20;;;4.90;;
41141;SDS011;63666;52.284;20.890;2022-10-26T01:59:46;6.00;;;4.90;;
41141;SDS011;63666;52.284;20.890;2022-10-26T02:02:53;6.20;;;4.80;;
41141;SDS011;63666;52.284;20.890;2022-10-26T02:05:58;6.20;;;4.60;;
41141;SDS011;63666;52.284;20.890;2022-10-26T02:08:51;6.50;;;5.00;;
41141;SDS011;63666;52.284;20.890;2022-10-26T02:11:35;6.00;;;4.50;;
41141;SDS011;63666;52.284;20.890;2022-10-26T02:14:17;6.90;;;5.00;;
41141;SDS011;63666;52.284;20.890;2022-10-26T02:16:54;5.70;;;4.60;;
41141;SDS011;63666;52.284;20.890;2022-10-26T02:19:34;6.70;;;4.90;;
41141;SDS011;63666;52.284;20.890;2022-10-26T02:22:15;5.70;;;4.60;;
41141;SDS011;63666;52.284;20.890;2022-10-26T02:24:52;5.60;;;4.50;;
41141;SDS011;63666;52.284;20.890;2022-10-26T02:27:27;7.40;;;5.30;;
41141;SDS011;63666;52.284;20.890;2022-10-26T02:30:06;6.40;;;4.70;;
41141;SDS011;63666;52.284;20.890;2022-10-26T02:32:45;5.90;;;4.80;;
41141;SDS011;63666;52.284;20.890;2022-10-26T02:35:24;6.20;;;4.60;;
41141;SDS011;63666;52.284;20.890;2022-10-26T02:37:59;6.40;;;5.10;;
41141;SDS011;63666;52.284;20.890;2022-10-26T02:40:34;6.20;;;5.00;;
41141;SDS011;63666;52.284;20.890;2022-10-26T02:43:11;7.20;;;4.90;;
41141;SDS011;63666;52.284;20.890;2022-10-26T02:45:52;7.20;;;5.20;;
41141;SDS011;63666;52.284;20.890;2022-10-26T02:48:28;6.00;;;4.70;;
41141;SDS011;63666;52.284;20.890;2022-10-26T02:51:02;6.00;;;4.70;;
41141;SDS011;63666;52.284;20.890;2022-10-26T02:53:47;5.90;;;5.00;;
41141;SDS011;63666;52.284;20.890;2022-10-26T02:56:25;6.10;;;4.60;;
41141;SDS011;63666;52.284;20.890;2022-10-26T02:59:03;6.80;;;5.30;;
41141;SDS011;63666;52.284;20.890;2022-10-26T03:01:36;6.10;;;4.80;;
41141;SDS011;63666;52.284;20.890;2022-10-26T03:04:09;6.10;;;4.80;;
41141;SDS011;63666;52.284;20.890;2022-10-26T03:06:41;7.60;;;5.10;;
41141;SDS011;63666;52.284;20.890;2022-10-26T03:09:16;6.70;;;5.00;;
41141;SDS011;63666;52.284;20.890;2022-10-26T03:11:48;7.30;;;5.40;;
41141;SDS011;63666;52.284;20.890;2022-10-26T03:14:20;6.10;;;5.00;;
41141;SDS011;63666;52.284;20.890;2022-10-26T03:16:52;6.80;;;5.30;;
41141;SDS011;63666;52.284;20.890;2022-10-26T03:19:24;6.50;;;5.00;;
41141;SDS011;63666;52.284;20.890;2022-10-26T03:21:56;7.40;;;5.70;;
41141;SDS011;63666;52.284;20.890;2022-10-26T03:24:29;6.20;;;5.10;;
41141;SDS011;63666;52.284;20.890;2022-10-26T03:27:01;6.70;;;5.00;;
41141;SDS011;63666;52.284;20.890;2022-10-26T03:29:33;7.00;;;5.10;;
41141;SDS011;63666;52.284;20.890;2022-10-26T03:32:05;6.60;;;5.30;;
41141;SDS011;63666;52.284;20.890;2022-10-26T03:34:37;6.80;;;5.30;;
41141;SDS011;63666;52.284;20.890;2022-10-26T03:37:10;6.90;;;5.50;;
41141;SDS011;63666;52.284;20.890;2022-10-26T03:39:42;7.00;;;5.50;;
41141;SDS011;63666;52.284;20.890;2022-10-26T03:42:14;6.60;;;5.30;;
41141;SDS011;63666;52.284;20.890;2022-10-26T03:44:46;6.20;;;5.30;;
41141;SDS011;63666;52.284;20.890;2022-10-26T03:47:18;7.00;;;5.40;;
41141;SDS011;63666;52.284;20.890;2022-10-26T03:49:50;7.60;;;5.90;;
41141;SDS011;63666;52.284;20.890;2022-10-26T03:52:22;6.90;;;5.40;;
41141;SDS011;63666;52.284;20.890;2022-10-26T03:54:54;7.00;;;5.30;;
41141;SDS011;63666;52.284;20.890;2022-10-26T03:57:26;6.50;;;5.30;;
41141;SDS011;63666;52.284;20.890;2022-10-26T03:59:58;7.10;;;5.30;;
41141;SDS011;63666;52.284;20.890;2022-10-26T04:02:31;6.80;;;5.60;;
41141;SDS011;63666;52.284;20.890;2022-10-26T04:05:06;6.70;;;5.60;;
41141;SDS011;63666;52.284;20.890;2022-10-26T04:07:39;7.00;;;5.60;;
41141;SDS011;63666;52.284;20.890;2022-10-26T04:10:14;7.10;;;5.90;;
41141;SDS011;63666;52.284;20.890;2022-10-26T04:12:46;6.90;;;5.60;;
41141;SDS011;63666;52.284;20.890;2022-10-26T04:15:21;7.60;;;6.00;;
41141;SDS011;63666;52.284;20.890;2022-10-26T04:17:59;7.50;;;5.80;;
41141;SDS011;63666;52.284;20.890;2022-10-26T04:20:33;7.90;;;6.20;;
41141;SDS011;63666;52.284;20.890;2022-10-26T04:23:09;7.30;;;5.80;;
41141;SDS011;63666;52.284;20.890;2022-10-26T04:25:42;7.50;;;6.40;;
41141;SDS011;63666;52.284;20.890;2022-10-26T04:28:14;7.30;;;6.00;;
41141;SDS011;63666;52.284;20.890;2022-10-26T04:30:47;7.20;;;6.20;;
41141;SDS011;63666;52.284;20.890;2022-10-26T04:33:20;7.40;;;6.00;;
41141;SDS011;63666;52.284;20.890;2022-10-26T04:35:59;7.00;;;5.80;;
41141;SDS011;63666;52.284;20.890;2022-10-26T04:38:35;12.00;;;6.90;;
41141;SDS011;63666;52.284;20.890;2022-10-26T04:41:07;7.30;;;6.60;;
41141;SDS011;63666;52.284;20.890;2022-10-26T04:43:39;7.40;;;6.20;;
41141;SDS011;63666;52.284;20.890;2022-10-26T04:46:11;7.90;;;6.40;;
41141;SDS011;63666;52.284;20.890;2022-10-26T04:48:46;8.20;;;6.40;;
41141;SDS011;63666;52.284;20.890;2022-10-26T04:51:18;7.10;;;6.10;;
41141;SDS011;63666;52.284;20.890;2022-10-26T04:53:53;8.00;;;6.30;;
41141;SDS011;63666;52.284;20.890;2022-10-26T04:56:26;8.00;;;6.40;;
41141;SDS011;63666;52.284;20.890;2022-10-26T04:58:58;7.50;;;6.50;;
41141;SDS011;63666;52.284;20.890;2022-10-26T05:01:31;7.10;;;6.40;;
41141;SDS011;63666;52.284;20.890;2022-10-26T05:04:03;7.90;;;6.40;;
41141;SDS011;63666;52.284;20.890;2022-10-26T05:06:38;7.50;;;6.20;;
41141;SDS011;63666;52.284;20.890;2022-10-26T05:09:10;7.50;;;6.40;;
41141;SDS011;63666;52.284;20.890;2022-10-26T05:11:43;8.10;;;6.50;;
41141;SDS011;63666;52.284;20.890;2022-10-26T05:14:15;8.30;;;6.50;;
41141;SDS011;63666;52.284;20.890;2022-10-26T05:16:47;7.90;;;6.30;;
41141;SDS011;63666;52.284;20.890;2022-10-26T05:19:23;7.60;;;6.40;;
41141;SDS011;63666;52.284;20.890;2022-10-26T05:21:55;7.80;;;6.80;;
41141;SDS011;63666;52.284;20.890;2022-10-26T05:24:27;7.50;;;6.40;;
41141;SDS011;63666;52.284;20.890;2022-10-26T05:26:59;7.60;;;6.60;;
41141;SDS011;63666;52.284;20.890;2022-10-26T05:29:32;7.90;;;6.90;;
41141;SDS011;63666;52.284;20.890;2022-10-26T05:32:04;7.20;;;6.30;;
41141;SDS011;63666;52.284;20.890;2022-10-26T05:34:36;8.10;;;6.50;;
41141;SDS011;63666;52.284;20.890;2022-10-26T05:37:08;8.00;;;6.30;;
41141;SDS011;63666;52.284;20.890;2022-10-26T05:39:40;7.10;;;6.20;;
41141;SDS011;63666;52.284;20.890;2022-10-26T05:42:12;7.40;;;6.50;;
41141;SDS011;63666;52.284;20.890;2022-10-26T05:44:44;7.20;;;6.40;;
41141;SDS011;63666;52.284;20.890;2022-10-26T05:47:17;8.10;;;6.90;;
41141;SDS011;63666;52.284;20.890;2022-10-26T05:49:49;8.10;;;6.90;;
41141;SDS011;63666;52.284;20.890;2022-10-26T05:52:21;7.70;;;6.90;;
41141;SDS011;63666;52.284;20.890;2022-10-26T05:54:53;8.00;;;7.00;;
41141;SDS011;63666;52.284;20.890;2022-10-26T05:57:26;7.60;;;6.50;;
41141;SDS011;63666;52.284;20.890;2022-10-26T06:00:00;7.70;;;6.20;;
41141;SDS011;63666;52.284;20.890;2022-10-26T06:02:38;7.40;;;6.20;;
41141;SDS011;63666;52.284;20.890;2022-10-26T06:05:17;7.40;;;6.60;;
41141;SDS011;63666;52.284;20.890;2022-10-26T06:07:54;7.30;;;6.10;;
41141;SDS011;63666;52.284;20.890;2022-10-26T06:10:28;7.50;;;6.70;;
41141;SDS011;63666;52.284;20.890;2022-10-26T06:13:04;7.20;;;6.30;;
41141;SDS011;63666;52.284;20.890;2022-10-26T06:15:44;7.70;;;6.40;;
41141;SDS011;63666;52.284;20.890;2022-10-26T06:18:30;7.70;;;6.60;;
41141;SDS011;63666;52.284;20.890;2022-10-26T06:21:21;7.30;;;6.20;;
41141;SDS011;63666;52.284;20.890;2022-10-26T06:24:06;8.30;;;6.50;;
41141;SDS011;63666;52.284;20.890;2022-10-26T06:26:47;7.80;;;6.30;;
41141;SDS011;63666;52.284;20.890;2022-10-26T06:29:31;8.00;;;6.80;;
41141;SDS011;63666;52.284;20.890;2022-10-26T06:32:11;7.90;;;6.30;;
41141;SDS011;63666;52.284;20.890;2022-10-26T06:34:45;8.60;;;6.30;;
41141;SDS011;63666;52.284;20.890;2022-10-26T06:37:19;8.20;;;6.50;;
41141;SDS011;63666;52.284;20.890;2022-10-26T06:39:58;8.00;;;6.30;;
41141;SDS011;63666;52.284;20.890;2022-10-26T06:42:32;7.80;;;6.40;;
41141;SDS011;63666;52.284;20.890;2022-10-26T06:45:09;7.40;;;6.20;;
41141;SDS011;63666;52.284;20.890;2022-10-26T06:47:48;9.40;;;7.00;;
41141;SDS011;63666;52.284;20.890;2022-10-26T06:50:32;8.70;;;6.40;;
41141;SDS011;63666;52.284;20.890;2022-10-26T06:53:16;8.20;;;6.60;;
41141;SDS011;63666;52.284;20.890;2022-10-26T06:55:52;8.20;;;6.80;;
41141;SDS011;63666;52.284;20.890;2022-10-26T06:58:30;8.80;;;6.90;;
41141;SDS011;63666;52.284;20.890;2022-10-26T07:01:08;9.20;;;7.20;;
41141;SDS011;63666;52.284;20.890;2022-10-26T07:03:41;8.80;;;6.90;;
41141;SDS011;63666;52.284;20.890;2022-10-26T07:06:13;7.70;;;6.40;;
41141;SDS011;63666;52.284;20.890;2022-10-26T07:08:48;8.10;;;6.40;;
41141;SDS011;63666;52.284;20.890;2022-10-26T07:11:20;8.10;;;6.50;;
41141;SDS011;63666;52.284;20.890;2022-10-26T07:13:52;10.40;;;6.80;;
41141;SDS011;63666;52.284;20.890;2022-10-26T07:16:24;8.60;;;6.80;;
41141;SDS011;63666;52.284;20.890;2022-10-26T07:18:57;8.80;;;6.30;;
41141;SDS011;63666;52.284;20.890;2022-10-26T07:21:32;9.50;;;6.40;;
41141;SDS011;63666;52.284;20.890;2022-10-26T07:24:05;8.70;;;6.60;;
41141;SDS011;63666;52.284;20.890;2022-10-26T07:26:40;7.90;;;6.20;;
41141;SDS011;63666;52.284;20.890;2022-10-26T07:29:19;9.40;;;6.40;;
41141;SDS011;63666;52.284;20.890;2022-10-26T07:31:51;10.00;;;6.80;;
41141;SDS011;63666;52.284;20.890;2022-10-26T07:34:24;9.20;;;6.70;;
41141;SDS011;63666;52.284;20.890;2022-10-26T07:36:59;9.80;;;6.60;;
41141;SDS011;63666;52.284;20.890;2022-10-26T07:39:32;9.80;;;6.90;;
41141;SDS011;63666;52.284;20.890;2022-10-26T07:42:04;7.90;;;6.30;;
41141;SDS011;63666;52.284;20.890;2022-10-26T07:44:38;8.80;;;6.20;;
41141;SDS011;63666;52.284;20.890;2022-10-26T07:47:09;8.50;;;6.60;;
41141;SDS011;63666;52.284;20.890;2022-10-26T07:49:41;8.60;;;6.70;;
41141;SDS011;63666;52.284;20.890;2022-10-26T07:52:13;7.70;;;6.30;;
41141;SDS011;63666;52.284;20.890;2022-10-26T07:54:45;8.00;;;6.70;;
41141;SDS011;63666;52.284;20.890;2022-10-26T07:57:17;8.90;;;6.30;;
41141;SDS011;63666;52.284;20.890;2022-10-26T07:59:52;9.30;;;6.70;;
41141;SDS011;63666;52.284;20.890;2022-10-26T08:02:24;8.30;;;6.30;;
41141;SDS011;63666;52.284;20.890;2022-10-26T08:04:56;9.60;;;6.60;;
41141;SDS011;63666;52.284;20.890;2022-10-26T08:07:28;8.70;;;5.60;;
41141;SDS011;63666;52.284;20.890;2022-10-26T08:10:00;8.90;;;6.70;;
41141;SDS011;63666;52.284;20.890;2022-10-26T08:12:33;8.90;;;6.30;;
41141;SDS011;63666;52.284;20.890;2022-10-26T08:15:10;8.10;;;6.20;;
41141;SDS011;63666;52.284;20.890;2022-10-26T08:17:42;9.40;;;6.20;;
41141;SDS011;63666;52.284;20.890;2022-10-26T08:20:15;7.90;;;6.10;;
41141;SDS011;63666;52.284;20.890;2022-10-26T08:22:47;9.10;;;6.60;;
41141;SDS011;63666;52.284;20.890;2022-10-26T08:25:19;8.40;;;5.60;;
41141;SDS011;63666;52.284;20.890;2022-10-26T08:27:51;8.20;;;5.60;;
41141;SDS011;63666;52.284;20.890;2022-10-26T08:30:24;8.30;;;5.90;;
41141;SDS011;63666;52.284;20.890;2022-10-26T08:33:00;9.20;;;5.90;;
41141;SDS011;63666;52.284;20.890;2022-10-26T08:35:34;7.30;;;5.30;;
41141;SDS011;63666;52.284;20.890;2022-10-26T08:38:06;7.30;;;5.90;;
41141;SDS011;63666;52.284;20.890;2022-10-26T08:40:40;7.40;;;5.90;;
41141;SDS011;63666;52.284;20.890;2022-10-26T08:43:16;8.40;;;6.20;;
41141;SDS011;63666;52.284;20.890;2022-10-26T08:45:58;9.70;;;6.00;;
41141;SDS011;63666;52.284;20.890;2022-10-26T08:48:35;7.80;;;5.80;;
41141;SDS011;63666;52.284;20.890;2022-10-26T08:51:13;8.20;;;6.00;;
41141;SDS011;63666;52.284;20.890;2022-10-26T08:53:56;7.90;;;5.40;;
41141;SDS011;63666;52.284;20.890;2022-10-26T08:56:38;7.90;;;5.70;;
41141;SDS011;63666;52.284;20.890;2022-10-26T08:59:17;8.40;;;5.50;;
41141;SDS011;63666;52.284;20.890;2022-10-26T09:01:55;7.90;;;5.50;;
41141;SDS011;63666;52.284;20.890;2022-10-26T09:04:31;7.90;;;6.00;;
41141;SDS011;63666;52.284;20.890;2022-10-26T09:07:14;9.20;;;6.10;;
41141;SDS011;63666;52.284;20.890;2022-10-26T09:10:00;7.70;;;5.60;;
41141;SDS011;63666;52.284;20.890;2022-10-26T09:12:42;7.50;;;5.40;;
41141;SDS011;63666;52.284;20.890;2022-10-26T09:15:26;7.50;;;5.70;;
41141;SDS011;63666;52.284;20.890;2022-10-26T09:18:15;7.60;;;5.90;;
41141;SDS011;63666;52.284;20.890;2022-10-26T09:21:04;8.90;;;6.20;;
41141;SDS011;63666;52.284;20.890;2022-10-26T09:23:53;8.00;;;5.80;;
41141;SDS011;63666;52.284;20.890;2022-10-26T09:26:37;9.90;;;6.20;;
41141;SDS011;63666;52.284;20.890;2022-10-26T09:31:50;8.30;;;5.80;;
41141;SDS011;63666;52.284;20.890;2022-10-26T09:34:28;7.70;;;6.30;;
41141;SDS011;63666;52.284;20.890;2022-10-26T09:37:12;8.00;;;5.60;;
41141;SDS011;63666;52.284;20.890;2022-10-26T09:39:57;7.70;;;5.70;;
41141;SDS011;63666;52.284;20.890;2022-10-26T09:42:40;9.00;;;5.70;;
41141;SDS011;63666;52.284;20.890;2022-10-26T09:45:19;8.10;;;6.10;;
41141;SDS011;63666;52.284;20.890;2022-10-26T09:47:55;7.70;;;5.50;;
41141;SDS011;63666;52.284;20.890;2022-10-26T09:50:32;7.90;;;5.70;;
41141;SDS011;63666;52.284;20.890;2022-10-26T09:53:11;8.00;;;6.00;;
41141;SDS011;63666;52.284;20.890;2022-10-26T09:55:47;8.10;;;5.90;;
41141;SDS011;63666;52.284;20.890;2022-10-26T09:58:22;8.70;;;5.60;;
41141;SDS011;63666;52.284;20.890;2022-10-26T10:01:00;8.00;;;6.00;;
41141;SDS011;63666;52.284;20.890;2022-10-26T10:03:32;7.60;;;5.80;;
41141;SDS011;63666;52.284;20.890;2022-10-26T10:06:18;7.80;;;5.60;;
41141;SDS011;63666;52.284;20.890;2022-10-26T10:09:06;7.40;;;5.80;;
41141;SDS011;63666;52.284;20.890;2022-10-26T10:11:43;7.90;;;5.40;;
41141;SDS011;63666;52.284;20.890;2022-10-26T10:14:26;8.00;;;5.60;;
41141;SDS011;63666;52.284;20.890;2022-10-26T10:17:03;8.10;;;5.70;;
41141;SDS011;63666;52.284;20.890;2022-10-26T10:19:39;7.00;;;5.40;;
41141;SDS011;63666;52.284;20.890;2022-10-26T10:22:17;9.40;;;5.70;;
41141;SDS011;63666;52.284;20.890;2022-10-26T10:24:56;8.90;;;5.80;;
41141;SDS011;63666;52.284;20.890;2022-10-26T10:27:31;8.40;;;5.90;;
41141;SDS011;63666;52.284;20.890;2022-10-26T10:30:21;7.50;;;5.50;;
41141;SDS011;63666;52.284;20.890;2022-10-26T10:33:09;7.70;;;5.40;;
41141;SDS011;63666;52.284;20.890;2022-10-26T10:35:49;8.50;;;5.60;;
41141;SDS011;63666;52.284;20.890;2022-10-26T10:38:21;7.70;;;5.60;;
41141;SDS011;63666;52.284;20.890;2022-10-26T10:40:55;7.30;;;5.40;;
41141;SDS011;63666;52.284;20.890;2022-10-26T10:43:31;7.90;;;5.30;;
41141;SDS011;63666;52.284;20.890;2022-10-26T10:46:05;7.30;;;5.40;;
41141;SDS011;63666;52.284;20.890;2022-10-26T10:48:38;8.00;;;5.80;;
41141;SDS011;63666;52.284;20.890;2022-10-26T10:51:22;6.90;;;5.60;;
41141;SDS011;63666;52.284;20.890;2022-10-26T10:53:58;7.90;;;5.60;;
41141;SDS011;63666;52.284;20.890;2022-10-26T10:56:39;11.40;;;6.30;;
41141;SDS011;63666;52.284;20.890;2022-10-26T10:59:32;7.70;;;5.70;;
41141;SDS011;63666;52.284;20.890;2022-10-26T11:02:26;7.60;;;5.00;;
41141;SDS011;63666;52.284;20.890;2022-10-26T11:08:04;6.20;;;5.00;;
41141;SDS011;63666;52.284;20.890;2022-10-26T11:10:43;6.80;;;4.90;;
41141;SDS011;63666;52.284;20.890;2022-10-26T11:13:22;6.90;;;5.20;;
41141;SDS011;63666;52.284;20.890;2022-10-26T11:16:02;6.70;;;5.20;;
41141;SDS011;63666;52.284;20.890;2022-10-26T11:18:40;7.90;;;5.30;;
41141;SDS011;63666;52.284;20.890;2022-10-26T11:21:24;7.00;;;5.30;;
41141;SDS011;63666;52.284;20.890;2022-10-26T11:24:12;6.50;;;4.90;;
41141;SDS011;63666;52.284;20.890;2022-10-26T11:26:49;7.70;;;5.00;;
41141;SDS011;63666;52.284;20.890;2022-10-26T11:29:30;7.00;;;4.80;;
41141;SDS011;63666;52.284;20.890;2022-10-26T11:32:14;6.70;;;4.70;;
41141;SDS011;63666;52.284;20.890;2022-10-26T11:34:57;7.20;;;5.20;;
41141;SDS011;63666;52.284;20.890;2022-10-26T11:37:40;6.90;;;5.00;;
41141;SDS011;63666;52.284;20.890;2022-10-26T11:40:27;7.40;;;4.80;;
41141;SDS011;63666;52.284;20.890;2022-10-26T11:43:11;6.50;;;5.00;;
41141;SDS011;63666;52.284;20.890;2022-10-26T11:45:56;6.60;;;4.80;;
41141;SDS011;63666;52.284;20.890;2022-10-26T11:48:35;6.80;;;5.00;;
41141;SDS011;63666;52.284;20.890;2022-10-26T11:51:16;6.30;;;4.70;;
41141;SDS011;63666;52.284;20.890;2022-10-26T11:53:51;6.40;;;4.80;;
41141;SDS011;63666;52.284;20.890;2022-10-26T11:56:31;6.60;;;5.10;;
41141;SDS011;63666;52.284;20.890;2022-10-26T11:59:08;6.70;;;4.30;;
41141;SDS011;63666;52.284;20.890;2022-10-26T12:01:51;6.00;;;4.40;;
41141;SDS011;63666;52.284;20.890;2022-10-26T12:04:28;6.90;;;4.70;;
41141;SDS011;63666;52.284;20.890;2022-10-26T12:07:03;6.50;;;4.50;;
41141;SDS011;63666;52.284;20.890;2022-10-26T12:09:42;6.40;;;4.50;;
41141;SDS011;63666;52.284;20.890;2022-10-26T12:12:22;5.90;;;4.50;;
41141;SDS011;63666;52.284;20.890;2022-10-26T12:15:17;6.60;;;4.80;;
41141;SDS011;63666;52.284;20.890;2022-10-26T12:17:58;6.40;;;4.60;;
41141;SDS011;63666;52.284;20.890;2022-10-26T12:20:57;6.00;;;4.40;;
41141;SDS011;63666;52.284;20.890;2022-10-26T12:23:34;6.30;;;4.50;;
41141;SDS011;63666;52.284;20.890;2022-10-26T12:29:34;6.40;;;4.30;;
41141;SDS011;63666;52.284;20.890;2022-10-26T12:35:40;6.40;;;4.50;;
41141;SDS011;63666;52.284;20.890;2022-10-26T12:41:27;6.20;;;4.00;;
41141;SDS011;63666;52.284;20.890;2022-10-26T12:44:34;6.60;;;4.40;;
41141;SDS011;63666;52.284;20.890;2022-10-26T12:47:58;6.90;;;4.60;;
41141;SDS011;63666;52.284;20.890;2022-10-26T12:50:41;7.40;;;4.30;;
41141;SDS011;63666;52.284;20.890;2022-10-26T12:53:14;6.80;;;4.60;;
41141;SDS011;63666;52.284;20.890;2022-10-26T12:56:06;7.30;;;4.50;;
41141;SDS011;63666;52.284;20.890;2022-10-26T12:59:15;6.80;;;4.80;;
41141;SDS011;63666;52.284;20.890;2022-10-26T13:02:32;6.20;;;4.40;;
41141;SDS011;63666;52.284;20.890;2022-10-26T13:05:30;6.50;;;4.70;;
41141;SDS011;63666;52.284;20.890;2022-10-26T13:08:11;6.20;;;4.40;;
41141;SDS011;63666;52.284;20.890;2022-10-26T13:13:36;7.20;;;4.40;;
41141;SDS011;63666;52.284;20.890;2022-10-26T13:16:11;6.30;;;4.40;;
41141;SDS011;63666;52.284;20.890;2022-10-26T13:18:45;7.40;;;4.40;;
41141;SDS011;63666;52.284;20.890;2022-10-26T13:21:22;6.50;;;4.30;;
41141;SDS011;63666;52.284;20.890;2022-10-26T13:23:59;6.90;;;4.30;;
41141;SDS011;63666;52.284;20.890;2022-10-26T13:33:21;7.00;;;4.30;;
41141;SDS011;63666;52.284;20.890;2022-10-26T13:35:56;5.70;;;4.00;;
41141;SDS011;63666;52.284;20.890;2022-10-26T13:38:32;6.60;;;4.10;;
41141;SDS011;63666;52.284;20.890;2022-10-26T13:41:20;6.00;;;3.90;;
41141;SDS011;63666;52.284;20.890;2022-10-26T13:43:58;6.00;;;4.20;;
41141;SDS011;63666;52.284;20.890;2022-10-26T13:46:37;6.00;;;4.60;;
41141;SDS011;63666;52.284;20.890;2022-10-26T13:49:19;6.00;;;4.20;;
41141;SDS011;63666;52.284;20.890;2022-10-26T13:51:54;6.20;;;4.00;;
41141;SDS011;63666;52.284;20.890;2022-10-26T13:54:31;6.10;;;4.00;;
41141;SDS011;63666;52.284;20.890;2022-10-26T13:57:14;6.60;;;4.40;;
41141;SDS011;63666;52.284;20.890;2022-10-26T13:59:49;6.00;;;4.20;;
41141;SDS011;63666;52.284;20.890;2022-10-26T14:02:25;5.90;;;4.30;;
41141;SDS011;63666;52.284;20.890;2022-10-26T14:05:02;6.50;;;4.20;;
41141;SDS011;63666;52.284;20.890;2022-10-26T14:07:40;6.40;;;4.30;;
41141;SDS011;63666;52.284;20.890;2022-10-26T14:10:25;7.00;;;4.40;;
41141;SDS011;63666;52.284;20.890;2022-10-26T14:12:58;6.40;;;4.20;;
41141;SDS011;63666;52.284;20.890;2022-10-26T14:15:32;5.60;;;4.00;;
41141;SDS011;63666;52.284;20.890;2022-10-26T14:18:05;5.90;;;4.00;;
41141;SDS011;63666;52.284;20.890;2022-10-26T14:20:48;5.90;;;3.90;;
41141;SDS011;63666;52.284;20.890;2022-10-26T14:23:32;6.10;;;3.90;;
41141;SDS011;63666;52.284;20.890;2022-10-26T14:26:05;5.60;;;4.00;;
41141;SDS011;63666;52.284;20.890;2022-10-26T14:28:49;5.40;;;3.90;;
41141;SDS011;63666;52.284;20.890;2022-10-26T14:31:25;5.60;;;3.70;;
41141;SDS011;63666;52.284;20.890;2022-10-26T14:33:59;5.80;;;4.20;;
41141;SDS011;63666;52.284;20.890;2022-10-26T14:36:37;6.50;;;3.80;;
41141;SDS011;63666;52.284;20.890;2022-10-26T14:39:17;6.40;;;4.10;;
41141;SDS011;63666;52.284;20.890;2022-10-26T14:41:54;6.40;;;4.10;;
41141;SDS011;63666;52.284;20.890;2022-10-26T14:44:27;5.80;;;3.80;;
41141;SDS011;63666;52.284;20.890;2022-10-26T14:49:30;6.10;;;3.80;;
41141;SDS011;63666;52.284;20.890;2022-10-26T14:52:05;5.40;;;3.70;;
41141;SDS011;63666;52.284;20.890;2022-10-26T14:54:41;6.00;;;3.90;;
41141;SDS011;63666;52.284;20.890;2022-10-26T14:57:33;5.30;;;3.70;;
41141;SDS011;63666;52.284;20.890;2022-10-26T15:00:18;5.40;;;3.90;;
41141;SDS011;63666;52.284;20.890;2022-10-26T15:02:55;6.30;;;4.20;;
41141;SDS011;63666;52.284;20.890;2022-10-26T15:05:33;6.30;;;4.20;;
41141;SDS011;63666;52.284;20.890;2022-10-26T15:08:40;6.40;;;4.10;;
41141;SDS011;63666;52.284;20.890;2022-10-26T15:11:13;5.30;;;3.70;;
41141;SDS011;63666;52.284;20.890;2022-10-26T15:13:45;5.90;;;3.90;;
41141;SDS011;63666;52.284;20.890;2022-10-26T15:16:19;5.70;;;3.90;;
41141;SDS011;63666;52.284;20.890;2022-10-26T15:18:58;5.80;;;3.90;;
41141;SDS011;63666;52.284;20.890;2022-10-26T15:21:37;6.30;;;4.40;;
41141;SDS011;63666;52.284;20.890;2022-10-26T15:24:30;5.10;;;3.50;;
41141;SDS011;63666;52.284;20.890;2022-10-26T15:27:15;5.80;;;3.70;;
41141;SDS011;63666;52.284;20.890;2022-10-26T15:32:27;5.50;;;3.90;;
41141;SDS011;63666;52.284;20.890;2022-10-26T15:37:44;5.60;;;3.80;;
41141;SDS011;63666;52.284;20.890;2022-10-26T15:40:18;5.60;;;3.70;;
41141;SDS011;63666;52.284;20.890;2022-10-26T15:42:54;5.70;;;3.80;;
41141;SDS011;63666;52.284;20.890;2022-10-26T15:45:31;5.30;;;3.90;;
41141;SDS011;63666;52.284;20.890;2022-10-26T15:48:18;5.70;;;3.80;;
41141;SDS011;63666;52.284;20.890;2022-10-26T15:50:53;5.80;;;3.80;;
41141;SDS011;63666;52.284;20.890;2022-10-26T15:53:26;5.90;;;3.80;;
41141;SDS011;63666;52.284;20.890;2022-10-26T15:56:02;6.10;;;3.90;;
41141;SDS011;63666;52.284;20.890;2022-10-26T15:58:38;5.60;;;3.90;;
41141;SDS011;63666;52.284;20.890;2022-10-26T16:01:14;5.50;;;3.80;;
41141;SDS011;63666;52.284;20.890;2022-10-26T16:03:51;5.10;;;3.60;;
41141;SDS011;63666;52.284;20.890;2022-10-26T16:06:27;6.10;;;3.90;;
41141;SDS011;63666;52.284;20.890;2022-10-26T16:09:02;6.50;;;4.30;;
41141;SDS011;63666;52.284;20.890;2022-10-26T16:11:38;5.60;;;4.80;;